createdAt,value
2023-02-07T00:01:29.058Z,20.17
2023-02-07T00:03:56.680Z,19.30
2023-02-07T00:06:34.970Z,19.73
2023-02-07T00:09:04.868Z,19.10
2023-02-07T00:11:31.605Z,20.70
2023-02-07T00:14:00.110Z,20.07
2023-02-07T00:16:27.958Z,21.27
2023-02-07T00:18:55.296Z,18.60
2023-02-07T00:21:23.990Z,20.13
2023-02-07T00:23:51.142Z,20.40
2023-02-07T00:26:21.117Z,20.50
2023-02-07T00:28:49.223Z,22.10
2023-02-07T00:31:22.276Z,21.20
2023-02-07T00:33:50.792Z,21.60
2023-02-07T00:36:20.751Z,21.40
2023-02-07T00:38:48.146Z,19.40
2023-02-07T00:41:17.721Z,18.50
2023-02-07T00:43:46.369Z,19.10
2023-02-07T00:46:13.202Z,19.03
2023-02-07T00:48:40.259Z,20.60
2023-02-07T00:51:07.504Z,17.97
2023-02-07T00:53:34.646Z,17.30
2023-02-07T00:56:01.576Z,18.57
2023-02-07T00:58:28.354Z,18.80
2023-02-07T01:00:55.128Z,17.77
2023-02-07T01:03:22.057Z,17.03
2023-02-07T01:05:49.115Z,21.37
2023-02-07T01:08:16.816Z,22.13
2023-02-07T01:10:45.763Z,22.30
2023-02-07T01:13:14.228Z,24.27
2023-02-07T01:15:43.881Z,24.87
2023-02-07T01:18:11.357Z,27.07
2023-02-07T01:20:38.225Z,24.50
2023-02-07T01:23:06.248Z,26.97
2023-02-07T01:25:33.581Z,27.70
2023-02-07T01:28:00.473Z,25.93
2023-02-07T01:30:27.486Z,26.77
2023-02-07T01:32:54.390Z,28.70
2023-02-07T01:35:21.209Z,27.53
2023-02-07T01:37:47.981Z,26.37
2023-02-07T01:40:14.802Z,25.33
2023-02-07T01:42:41.564Z,24.40
2023-02-07T01:45:37.088Z,26.37
2023-02-07T01:48:11.362Z,25.13
2023-02-07T01:50:40.198Z,25.10
2023-02-07T01:53:07.325Z,26.37
2023-02-07T01:55:38.537Z,26.20
2023-02-07T01:58:06.827Z,26.80
2023-02-07T02:00:35.123Z,24.60
2023-02-07T02:03:02.268Z,25.90
2023-02-07T02:05:31.019Z,26.63
2023-02-07T02:07:57.879Z,24.53
2023-02-07T02:10:31.278Z,25.70
2023-02-07T02:13:13.119Z,26.80
2023-02-07T02:15:56.327Z,24.13
2023-02-07T02:18:23.027Z,25.47
2023-02-07T02:21:17.714Z,26.13
2023-02-07T02:24:29.635Z,24.23
2023-02-07T02:26:59.864Z,23.60
2023-02-07T02:29:38.721Z,24.57
2023-02-07T02:32:23.528Z,23.10
2023-02-07T02:35:13.343Z,23.67
2023-02-07T02:37:45.999Z,22.50
2023-02-07T02:40:27.878Z,22.60
2023-02-07T02:43:03.153Z,22.80
2023-02-07T02:46:04.177Z,21.80
2023-02-07T02:48:32.990Z,23.27
2023-02-07T02:51:00.203Z,21.03
2023-02-07T02:53:27.072Z,21.00
2023-02-07T02:56:06.112Z,20.77
2023-02-07T02:59:01.344Z,21.87
2023-02-07T03:02:04.167Z,21.20
2023-02-07T03:05:06.124Z,20.57
2023-02-07T03:07:39.888Z,20.00
2023-02-07T03:10:19.578Z,19.10
2023-02-07T03:13:37.317Z,21.23
2023-02-07T03:16:24.029Z,18.73
2023-02-07T03:19:05.497Z,18.57
2023-02-07T03:21:55.439Z,19.57
2023-02-07T03:24:34.338Z,17.90
2023-02-07T03:27:05.434Z,18.30
2023-02-07T03:29:35.699Z,16.80
2023-02-07T03:32:05.367Z,17.73
2023-02-07T03:34:35.702Z,17.47
2023-02-07T03:37:12.500Z,15.33
2023-02-07T03:39:39.594Z,14.10
2023-02-07T03:42:23.639Z,16.10
2023-02-07T03:44:53.331Z,15.80
2023-02-07T03:47:20.410Z,15.30
2023-02-07T03:49:47.210Z,16.03
2023-02-07T03:52:14.013Z,13.93
2023-02-07T03:54:40.754Z,13.90
2023-02-07T03:57:07.743Z,13.03
2023-02-07T03:59:34.511Z,11.83
2023-02-07T04:02:02.238Z,11.80
2023-02-07T04:04:29.473Z,13.23
2023-02-07T04:06:56.312Z,10.40
2023-02-07T04:09:23.026Z,10.00
2023-02-07T04:11:50.840Z,10.73
2023-02-07T04:14:20.114Z,9.70
2023-02-07T04:16:48.154Z,11.47
2023-02-07T04:19:15.374Z,9.60
2023-02-07T04:21:42.344Z,8.63
2023-02-07T04:24:09.578Z,9.90
2023-02-07T04:26:36.426Z,9.60
2023-02-07T04:29:04.014Z,9.20
2023-02-07T04:31:30.839Z,9.83
2023-02-07T04:33:57.605Z,9.70
2023-02-07T04:36:24.444Z,9.00
2023-02-07T04:38:51.154Z,9.13
2023-02-07T04:41:18.035Z,9.10
2023-02-07T04:43:44.909Z,9.07
2023-02-07T04:46:11.827Z,9.00
2023-02-07T04:48:38.790Z,8.70
2023-02-07T04:51:06.674Z,9.93
2023-02-07T04:53:34.471Z,9.53
2023-02-07T04:56:01.225Z,9.80
2023-02-07T04:58:27.976Z,11.40
2023-02-07T05:00:55.178Z,10.40
2023-02-07T05:03:21.995Z,10.40
2023-02-07T05:05:49.080Z,9.73
2023-02-07T05:08:15.954Z,11.13
2023-02-07T05:10:42.887Z,11.07
2023-02-07T05:13:09.833Z,10.70
2023-02-07T05:15:37.055Z,9.50
2023-02-07T05:18:04.807Z,13.13
2023-02-07T05:20:31.894Z,11.93
2023-02-07T05:22:58.688Z,11.10
2023-02-07T05:25:25.515Z,10.67
2023-02-07T05:27:52.404Z,9.80
2023-02-07T05:30:19.674Z,11.50
2023-02-07T05:33:04.700Z,10.17
2023-02-07T05:35:46.033Z,10.47
2023-02-07T05:38:15.439Z,10.30
2023-02-07T05:40:42.943Z,11.20
2023-02-07T05:43:10.712Z,10.27
2023-02-07T05:45:38.118Z,10.50
2023-02-07T05:48:05.817Z,12.00
2023-02-07T05:50:32.934Z,11.30
2023-02-07T05:52:59.904Z,11.13
2023-02-07T05:55:26.664Z,10.90
2023-02-07T05:57:53.455Z,12.53
2023-02-07T06:00:20.524Z,11.90
2023-02-07T06:02:47.429Z,10.87
2023-02-07T06:05:20.379Z,12.30
2023-02-07T06:07:47.661Z,11.50
2023-02-07T06:10:15.273Z,12.00
2023-02-07T06:12:42.331Z,13.33
2023-02-07T06:15:09.702Z,13.57
2023-02-07T06:17:36.443Z,13.07
2023-02-07T06:20:03.655Z,13.73
2023-02-07T06:22:30.426Z,13.30
2023-02-07T06:24:57.163Z,12.80
2023-02-07T06:27:23.966Z,14.50
2023-02-07T06:32:19.200Z,15.03
2023-02-07T06:34:46.092Z,12.07
2023-02-07T06:37:12.877Z,12.13
2023-02-07T06:39:40.130Z,12.60
2023-02-07T06:42:06.866Z,13.33
2023-02-07T06:44:33.666Z,13.97
2023-02-07T06:47:00.440Z,12.73
2023-02-07T06:49:27.182Z,14.40
2023-02-07T06:51:53.960Z,12.73
2023-02-07T06:54:20.768Z,12.37
2023-02-07T06:56:47.556Z,12.87
2023-02-07T06:59:14.397Z,11.80
2023-02-07T07:01:42.263Z,12.50
2023-02-07T07:04:09.092Z,11.00
2023-02-07T07:06:36.074Z,12.77
2023-02-07T07:09:03.419Z,12.40
2023-02-07T07:11:30.221Z,12.63
2023-02-07T07:13:57.011Z,10.00
2023-02-07T07:16:23.887Z,11.33
2023-02-07T07:18:50.723Z,10.30
2023-02-07T07:21:17.478Z,10.30
2023-02-07T07:23:44.205Z,10.63
2023-02-07T07:26:11.092Z,10.77
2023-02-07T07:28:37.905Z,11.87
2023-02-07T07:31:07.518Z,11.13
2023-02-07T07:33:37.668Z,10.40
2023-02-07T07:36:15.034Z,11.43
2023-02-07T07:38:44.644Z,10.73
2023-02-07T07:41:14.171Z,11.93
2023-02-07T07:43:41.000Z,12.10
2023-02-07T07:46:08.945Z,10.23
2023-02-07T07:48:36.095Z,11.57
2023-02-07T07:51:03.019Z,11.50
2023-02-07T07:53:29.765Z,11.50
2023-02-07T07:55:57.537Z,10.80
2023-02-07T07:58:26.070Z,12.20
2023-02-07T08:00:53.259Z,12.27
2023-02-07T08:03:20.884Z,12.23
2023-02-07T08:05:48.290Z,11.07
2023-02-07T08:08:15.662Z,10.53
2023-02-07T08:10:42.829Z,10.20
2023-02-07T08:13:10.135Z,10.17
2023-02-07T08:15:37.360Z,10.10
2023-02-07T08:18:04.379Z,11.33
2023-02-07T08:20:31.555Z,11.90
2023-02-07T08:22:59.047Z,10.60
2023-02-07T08:25:26.815Z,11.30
2023-02-07T08:27:54.456Z,11.13
2023-02-07T08:30:21.898Z,10.73
2023-02-07T08:32:48.728Z,10.33
2023-02-07T08:35:15.549Z,10.60
2023-02-07T08:37:42.467Z,10.97
2023-02-07T08:40:09.680Z,10.33
2023-02-07T08:42:36.584Z,10.63
2023-02-07T08:45:05.740Z,10.67
2023-02-07T08:47:33.029Z,10.43
2023-02-07T08:49:59.798Z,10.17
2023-02-07T08:52:28.332Z,11.60
2023-02-07T08:54:55.761Z,10.80
2023-02-07T08:57:25.758Z,10.83
2023-02-07T08:59:53.382Z,10.47
2023-02-07T09:02:22.671Z,9.50
2023-02-07T09:04:49.562Z,10.77
2023-02-07T09:07:16.357Z,8.87
2023-02-07T09:09:43.158Z,9.87
2023-02-07T09:12:10.742Z,9.20
2023-02-07T09:14:38.903Z,9.63
2023-02-07T09:17:06.572Z,8.00
2023-02-07T09:19:34.121Z,8.30
2023-02-07T09:22:01.406Z,8.73
2023-02-07T09:24:28.211Z,8.40
2023-02-07T09:26:55.042Z,9.83
2023-02-07T09:29:22.079Z,8.90
2023-02-07T09:31:49.063Z,8.53
2023-02-07T09:34:15.952Z,8.63
2023-02-07T09:36:43.562Z,7.60
2023-02-07T09:39:10.450Z,8.73
2023-02-07T09:42:07.675Z,8.27
2023-02-07T09:44:59.311Z,8.30
2023-02-07T09:47:27.048Z,7.47
2023-02-07T09:50:15.399Z,6.40
2023-02-07T09:52:50.420Z,5.60
2023-02-07T09:55:32.671Z,5.93
2023-02-07T09:58:07.612Z,5.90
2023-02-07T10:00:37.879Z,5.17
2023-02-07T10:03:22.320Z,6.57
2023-02-07T10:06:18.033Z,6.90
2023-02-07T10:08:49.832Z,6.00
2023-02-07T10:11:38.166Z,6.67
2023-02-07T10:14:17.201Z,5.60
2023-02-07T10:17:07.302Z,5.90
2023-02-07T10:19:50.083Z,5.43
2023-02-07T10:22:36.447Z,6.00
2023-02-07T10:25:27.267Z,6.03
2023-02-07T10:28:11.941Z,6.60
2023-02-07T10:30:41.524Z,5.77
2023-02-07T10:33:16.159Z,6.00
2023-02-07T10:35:45.616Z,5.57
2023-02-07T10:38:32.128Z,6.10
2023-02-07T10:41:13.285Z,9.43
2023-02-07T10:43:43.067Z,6.60
2023-02-07T10:46:15.715Z,5.77
2023-02-07T10:48:42.697Z,5.40
2023-02-07T10:51:39.104Z,5.70
2023-02-07T10:54:08.700Z,5.80
2023-02-07T10:56:42.633Z,5.30
2023-02-07T10:59:51.178Z,5.40
2023-02-07T11:02:33.150Z,6.47
2023-02-07T11:05:24.198Z,5.67
2023-02-07T11:08:15.335Z,6.20
2023-02-07T11:10:43.971Z,5.17
2023-02-07T11:13:27.911Z,4.97
2023-02-07T11:16:07.220Z,5.53
2023-02-07T11:18:39.409Z,5.20
2023-02-07T11:21:22.558Z,5.47
2023-02-07T11:23:51.324Z,5.73
2023-02-07T11:26:23.196Z,5.33
2023-02-07T11:29:24.522Z,5.40
2023-02-07T11:31:54.932Z,4.83
2023-02-07T11:34:37.022Z,4.00
2023-02-07T11:37:22.011Z,5.20
2023-02-07T11:39:50.391Z,5.10
2023-02-07T11:42:32.055Z,4.77
2023-02-07T11:45:13.383Z,4.93
2023-02-07T11:47:46.843Z,5.37
2023-02-07T11:50:23.293Z,4.37
2023-02-07T11:52:56.361Z,4.57
2023-02-07T11:55:36.939Z,4.30
2023-02-07T11:58:11.073Z,5.00
2023-02-07T12:00:39.150Z,4.67
2023-02-07T12:03:31.760Z,4.90
2023-02-07T12:08:35.350Z,4.70
2023-02-07T12:11:25.762Z,5.03
2023-02-07T12:13:57.320Z,4.10
2023-02-07T12:16:30.768Z,5.40
2023-02-07T12:19:10.523Z,5.17
2023-02-07T12:22:16.827Z,4.67
2023-02-07T12:24:54.830Z,4.33
2023-02-07T12:27:26.298Z,6.00
2023-02-07T12:32:45.124Z,5.10
2023-02-07T12:35:39.240Z,4.90
2023-02-07T12:38:30.962Z,5.20
2023-02-07T12:41:14.924Z,5.07
2023-02-07T12:44:07.233Z,4.87
2023-02-07T12:47:01.125Z,5.07
2023-02-07T12:49:47.068Z,4.93
2023-02-07T13:08:29.752Z,5.20
2023-02-07T13:11:45.386Z,5.30
2023-02-07T13:14:33.455Z,5.20
2023-02-07T13:17:13.146Z,4.90
2023-02-07T13:19:39.899Z,4.60
2023-02-07T13:22:14.520Z,4.33
2023-02-07T13:24:43.803Z,4.90
2023-02-07T13:27:18.882Z,5.00
2023-02-07T13:29:48.448Z,5.40
2023-02-07T13:32:21.487Z,4.90
2023-02-07T13:35:10.729Z,4.87
2023-02-07T13:38:17.531Z,5.03
2023-02-07T13:40:50.029Z,5.03
2023-02-07T13:43:32.577Z,4.73
2023-02-07T13:46:27.313Z,6.93
2023-02-07T13:49:06.802Z,4.50
2023-02-07T13:52:22.734Z,4.30
2023-02-07T13:54:49.418Z,5.60
2023-02-07T13:57:59.832Z,4.97
2023-02-07T14:00:56.055Z,4.70
2023-02-07T14:03:35.245Z,5.13
2023-02-07T14:06:24.866Z,5.17
2023-02-07T14:09:19.117Z,5.60
2023-02-07T14:11:59.399Z,5.80
2023-02-07T14:14:34.942Z,5.60
2023-02-07T14:17:05.669Z,4.97
2023-02-07T14:19:41.636Z,5.60
2023-02-07T14:22:22.110Z,4.70
2023-02-07T14:25:18.283Z,5.37
2023-02-07T14:27:50.821Z,7.20
2023-02-07T14:30:27.676Z,6.20
2023-02-07T14:33:21.892Z,6.00
2023-02-07T14:36:14.501Z,6.10
2023-02-07T14:39:01.935Z,5.63
2023-02-07T14:41:34.558Z,6.90
2023-02-07T14:44:10.195Z,8.60
2023-02-07T14:46:41.307Z,5.70
2023-02-07T14:49:18.388Z,5.17
2023-02-07T14:51:58.227Z,5.00
2023-02-07T14:54:55.592Z,6.43
2023-02-07T14:57:55.836Z,6.00
2023-02-07T15:00:22.648Z,6.07
2023-02-07T15:02:55.013Z,5.77
2023-02-07T15:05:35.199Z,5.70
2023-02-07T15:10:44.182Z,4.63
2023-02-07T15:13:26.843Z,4.50
2023-02-07T15:16:05.104Z,7.70
2023-02-07T15:19:03.542Z,5.17
2023-02-07T15:21:33.348Z,4.90
2023-02-07T15:24:45.941Z,4.80
2023-02-07T15:27:26.582Z,5.07
2023-02-07T15:30:01.852Z,4.77
2023-02-07T15:32:34.970Z,4.97
2023-02-07T15:35:29.507Z,5.03
2023-02-07T15:38:18.058Z,4.87
2023-02-07T15:40:44.828Z,4.30
2023-02-07T15:43:27.210Z,4.43
2023-02-07T15:46:04.087Z,4.80
2023-02-07T15:48:31.967Z,4.87
2023-02-07T15:51:03.463Z,4.50
2023-02-07T15:53:31.112Z,4.63
2023-02-07T15:56:01.117Z,4.87
2023-02-07T15:58:33.245Z,4.77
2023-02-07T16:01:06.122Z,4.40
2023-02-07T16:03:47.554Z,4.63
2023-02-07T16:06:22.628Z,4.50
2023-02-07T16:08:54.693Z,4.80
2023-02-07T16:11:27.525Z,4.50
2023-02-07T16:14:01.292Z,4.50
2023-02-07T16:16:33.366Z,4.23
2023-02-07T16:19:06.607Z,4.43
2023-02-07T16:21:33.724Z,4.97
2023-02-07T16:24:09.414Z,4.33
2023-02-07T16:26:37.317Z,4.40
2023-02-07T16:29:08.228Z,5.20
2023-02-07T16:31:35.516Z,4.60
2023-02-07T16:34:02.368Z,4.17
2023-02-07T16:36:29.125Z,9.90
2023-02-07T16:38:55.834Z,21.37
2023-02-07T16:41:33.612Z,11.00
2023-02-07T16:44:07.362Z,5.13
2023-02-07T16:46:34.360Z,5.00
2023-02-07T16:49:01.409Z,5.50
2023-02-07T16:51:28.556Z,5.33
2023-02-07T16:53:55.363Z,5.20
2023-02-07T16:56:26.494Z,4.97
2023-02-07T16:58:53.304Z,4.67
2023-02-07T17:01:22.226Z,5.70
2023-02-07T17:03:49.251Z,5.50
2023-02-07T17:06:17.834Z,8.13
2023-02-07T17:08:45.260Z,7.53
2023-02-07T17:11:26.389Z,6.20
2023-02-07T17:13:55.123Z,12.23
2023-02-07T17:16:22.845Z,17.90
2023-02-07T17:18:49.945Z,7.20
2023-02-07T17:21:16.946Z,4.40
2023-02-07T17:23:44.747Z,5.10
2023-02-07T17:26:24.933Z,6.20
2023-02-07T17:28:52.672Z,5.80
2023-02-07T17:31:19.746Z,5.00
2023-02-07T17:33:47.641Z,5.07
2023-02-07T17:36:16.177Z,5.80
2023-02-07T17:38:43.654Z,5.53
2023-02-07T17:41:12.761Z,5.60
2023-02-07T17:43:41.436Z,7.97
2023-02-07T17:46:18.836Z,10.10
2023-02-07T17:48:47.547Z,11.17
2023-02-07T17:51:15.808Z,9.90
2023-02-07T17:53:42.627Z,10.20
2023-02-07T17:56:32.051Z,9.80
2023-02-07T17:59:02.442Z,5.80
2023-02-07T18:01:30.746Z,7.70
2023-02-07T18:03:57.652Z,7.73
2023-02-07T18:06:28.102Z,6.83
2023-02-07T18:08:58.552Z,6.53
2023-02-07T18:11:27.033Z,7.50
2023-02-07T18:13:54.412Z,7.07
2023-02-07T18:16:23.882Z,8.53
2023-02-07T18:18:52.614Z,9.30
2023-02-07T18:21:19.905Z,8.13
2023-02-07T18:23:46.791Z,7.87
2023-02-07T18:26:15.441Z,8.57
2023-02-07T18:28:43.526Z,9.20
2023-02-07T18:31:12.584Z,19.73
2023-02-07T18:33:39.462Z,10.40
2023-02-07T18:36:07.148Z,9.10
2023-02-07T18:38:34.085Z,9.07
2023-02-07T18:41:00.927Z,8.10
2023-02-07T18:43:27.629Z,9.63
2023-02-07T18:45:54.487Z,9.00
2023-02-07T18:48:21.211Z,12.30
2023-02-07T18:50:48.170Z,11.87
2023-02-07T18:53:15.119Z,11.80
2023-02-07T18:55:42.412Z,9.17
2023-02-07T18:58:09.247Z,9.63
2023-02-07T19:00:36.040Z,8.60
2023-02-07T19:03:02.810Z,8.73
2023-02-07T19:05:30.150Z,8.93
2023-02-07T19:10:31.654Z,9.40
2023-02-07T19:12:58.535Z,8.30
2023-02-07T19:15:25.308Z,9.70
2023-02-07T19:17:52.031Z,9.80
2023-02-07T19:20:18.861Z,8.70
2023-02-07T19:22:45.922Z,11.03
2023-02-07T19:25:13.292Z,9.33
2023-02-07T19:27:40.137Z,9.33
2023-02-07T19:30:08.025Z,10.70
2023-02-07T19:32:34.742Z,14.00
2023-02-07T19:35:01.479Z,13.97
2023-02-07T19:37:28.244Z,12.73
2023-02-07T19:39:56.330Z,13.97
2023-02-07T19:42:24.774Z,13.63
2023-02-07T19:44:51.536Z,12.60
2023-02-07T19:47:18.668Z,9.57
2023-02-07T19:49:51.653Z,9.73
2023-02-07T19:52:20.269Z,9.77
2023-02-07T19:54:47.171Z,10.00
2023-02-07T19:57:13.899Z,9.43
2023-02-07T19:59:40.932Z,9.93
2023-02-07T20:02:07.705Z,10.03
2023-02-07T20:04:34.422Z,11.13
2023-02-07T20:07:02.939Z,11.07
2023-02-07T20:09:29.907Z,12.10
2023-02-07T20:11:56.750Z,11.33
2023-02-07T20:14:23.638Z,10.80
2023-02-07T20:16:50.469Z,10.87
2023-02-07T20:19:17.295Z,10.97
2023-02-07T20:21:44.088Z,10.90
2023-02-07T20:24:10.952Z,12.17
2023-02-07T20:26:43.028Z,11.47
2023-02-07T20:29:15.369Z,11.77
2023-02-07T20:31:43.571Z,10.90
2023-02-07T20:34:10.537Z,10.20
2023-02-07T20:36:42.127Z,10.50
2023-02-07T20:39:12.730Z,9.83
2023-02-07T20:41:41.668Z,11.00
2023-02-07T20:44:13.209Z,10.73
2023-02-07T20:46:41.097Z,10.20
2023-02-07T20:49:12.331Z,9.10
2023-02-07T20:51:39.674Z,9.33
2023-02-07T20:54:07.297Z,10.40
2023-02-07T20:56:34.461Z,10.80
2023-02-07T20:59:01.321Z,11.00
2023-02-07T21:01:30.890Z,12.03
2023-02-07T21:04:00.356Z,11.73
2023-02-07T21:06:27.858Z,10.90
2023-02-07T21:09:01.651Z,11.30
2023-02-07T21:11:33.914Z,11.17
2023-02-07T21:14:05.930Z,10.80
2023-02-07T21:16:33.167Z,9.53
2023-02-07T21:19:00.561Z,9.50
2023-02-07T21:21:28.950Z,9.13
2023-02-07T21:23:56.032Z,9.83
2023-02-07T21:26:23.558Z,10.87
2023-02-07T21:28:50.304Z,9.20
2023-02-07T21:31:19.941Z,10.00
2023-02-07T21:33:47.551Z,10.00
2023-02-07T21:36:17.409Z,10.40
2023-02-07T21:38:47.233Z,10.33
2023-02-07T21:41:16.010Z,10.37
2023-02-07T21:43:42.871Z,10.23
2023-02-07T21:46:18.140Z,9.40
2023-02-07T21:48:46.737Z,9.57
2023-02-07T21:51:17.709Z,9.90
2023-02-07T21:53:44.904Z,8.50
2023-02-07T21:56:14.518Z,10.27
2023-02-07T21:58:42.277Z,10.57
2023-02-07T22:01:15.039Z,8.83
2023-02-07T22:03:43.883Z,9.80
2023-02-07T22:06:11.987Z,10.60
2023-02-07T22:08:39.887Z,11.10
2023-02-07T22:11:11.889Z,9.80
2023-02-07T22:13:41.104Z,9.87
2023-02-07T22:16:10.056Z,10.13
2023-02-07T22:18:37.240Z,8.70
2023-02-07T22:21:13.981Z,9.50
2023-02-07T22:23:42.464Z,9.47
2023-02-07T22:26:10.215Z,8.80
2023-02-07T22:28:41.144Z,9.70
2023-02-07T22:31:15.867Z,9.80
2023-02-07T22:33:43.233Z,9.20
2023-02-07T22:36:13.139Z,9.00
2023-02-07T22:38:39.984Z,8.60
2023-02-07T22:41:06.780Z,8.10
2023-02-07T22:43:33.513Z,8.00
2023-02-07T22:46:04.969Z,8.33
2023-02-07T22:48:32.087Z,8.23
2023-02-07T22:51:00.207Z,7.63
2023-02-07T22:53:27.462Z,7.10
2023-02-07T22:55:54.167Z,8.40
2023-02-07T22:58:21.036Z,7.50
2023-02-07T23:00:47.795Z,9.20
2023-02-07T23:03:14.532Z,8.20
2023-02-07T23:05:41.303Z,8.87
2023-02-07T23:08:08.097Z,8.83
2023-02-07T23:10:34.982Z,10.10
2023-02-07T23:13:02.066Z,8.70
2023-02-07T23:15:29.009Z,8.83
2023-02-07T23:17:56.149Z,9.10
2023-02-07T23:20:23.334Z,9.30
2023-02-07T23:22:50.236Z,7.93
2023-02-07T23:25:17.813Z,6.53
2023-02-07T23:27:45.410Z,8.73
2023-02-07T23:30:14.518Z,8.17
2023-02-07T23:32:41.652Z,8.10
2023-02-07T23:35:08.959Z,7.77
2023-02-07T23:37:35.857Z,8.30
2023-02-07T23:40:02.713Z,8.90
2023-02-07T23:42:29.492Z,8.43
2023-02-07T23:44:56.246Z,7.97
2023-02-07T23:47:23.018Z,7.97
2023-02-07T23:49:49.762Z,8.57
2023-02-07T23:52:16.499Z,9.00
2023-02-07T23:54:43.239Z,7.27
2023-02-07T23:57:10.107Z,8.83
2023-02-07T23:59:36.925Z,8.63
